Toledo, OH

5:14 PM EDT on August 30, 2015 (GMT -0400)
University of Toledo | | Change Station
CLOSE
Current Station
Personal Weather Station
Location: Toledo, OH
Elevation: 604 ft
Nearby Weather Stations

Elev 604 ft 41.66 °N, 83.62 °W | Updated 6 minutes ago

Partly Cloudy
Partly Cloudy
85.7 °F
Feels Like 92 °F
N
0.9
Wind Variable Wind from SW
Gusts 3.4 mph

Today
High -- | Low -- °F
--% Chance of Precip.
Yesterday
High -- | Low -- °F
Precip. -- in
6:57 AM 8:11 PM
Full, 98% visible
Pressure 30.01 in
Visibility 10.0 miles
Clouds Few 4200 ft
Heat Index 92 °F
Dew Point 72 °F
Humidity 63%
Rainfall Not available.
Snow Depth Not available.
UV 4 out of 12
Pollen 8.40 out of 12
Air Quality Not available.
Flu Activity Not available.
METAR KTDZ 302053Z AUTO 24011KT 10SM FEW042 30/19 A3002 RMK AO2 SLP161 T03000189 56013
Pressure 30.01 in
Visibility 10.0 miles
Clouds Few 4200 ft
Heat Index 92 °F
Dew Point 72 °F
Humidity 63%
Rainfall Not available.
Snow Depth Not available.
UV 4 out of 12
Pollen 8.40 out of 12
Air Quality Not available.
Flu Activity Not available.
METAR KTDZ 302053Z AUTO 24011KT 10SM FEW042 30/19 A3002 RMK AO2 SLP161 T03000189 56013

10-Day Weather Forecast

×

Almanac

Astronomy

Aug. 30, 2015 Rise Set
Actual Time
Civil Twilight
Nautical Twilight
Astronomical Twilight
Moon
Length of Visible Light
Length of Day
Tomorrow will be .
, % of the Moon is Illuminated

Today's Extremes

State Highs State Lows

Community

WunderPhotos

Upload Photos

1,851,062 photos uploaded!

WunderBlogs® & News

Nearby

Air Quality

  Air Quality AQ Index Pollutant
Not available.

Snow Depth

Station Depth Elevation

Earthquake Activity

City Distance Mag. Time & Date
Minimum magnitude displayed is 2.5.

Coastal Water Temperatures

Place Temperature

Stations

Nearby Weather Stations

Station Location Temp. Windchill Dew Point Humidity Wind Precip. Elev Updated Type